sensor_id;sensor_type;location;lat;lon;timestamp;pressure;altitude;pressure_sealevel;temperature;humidity
8699;BME280;4386;51.236;6.742;2023-04-16T00:01:01;95967.81;;;11.08;66.08
8699;BME280;4386;51.236;6.742;2023-04-16T00:02:23;95976.56;;;11.08;66.07
8699;BME280;4386;51.236;6.742;2023-04-16T00:03:49;95968.63;;;11.08;66.03
8699;BME280;4386;51.236;6.742;2023-04-16T00:05:13;95975.22;;;11.06;66.12
8699;BME280;4386;51.236;6.742;2023-04-16T00:06:36;95972.31;;;11.07;66.21
8699;BME280;4386;51.236;6.742;2023-04-16T00:07:39;95976.56;;;11.08;66.26
8699;BME280;4386;51.236;6.742;2023-04-16T00:08:41;95963.66;;;11.12;66.22
8699;BME280;4386;51.236;6.742;2023-04-16T00:09:45;95967.44;;;11.16;66.07
8699;BME280;4386;51.236;6.742;2023-04-16T00:10:48;95968.53;;;11.20;65.95
8699;BME280;4386;51.236;6.742;2023-04-16T00:11:51;95971.50;;;11.23;65.93
8699;BME280;4386;51.236;6.742;2023-04-16T00:12:54;95976.09;;;11.28;65.81
8699;BME280;4386;51.236;6.742;2023-04-16T00:13:56;95974.81;;;11.30;65.76
8699;BME280;4386;51.236;6.742;2023-04-16T00:15:00;95975.34;;;11.32;65.61
8699;BME280;4386;51.236;6.742;2023-04-16T00:16:02;95976.75;;;11.35;65.53
8699;BME280;4386;51.236;6.742;2023-04-16T00:17:06;95968.53;;;11.36;65.23
8699;BME280;4386;51.236;6.742;2023-04-16T00:18:08;95969.91;;;11.39;65.39
8699;BME280;4386;51.236;6.742;2023-04-16T00:19:12;95965.41;;;11.39;65.49
8699;BME280;4386;51.236;6.742;2023-04-16T00:20:15;95970.47;;;11.41;65.27
8699;BME280;4386;51.236;6.742;2023-04-16T00:21:18;95976.00;;;11.39;65.23
8699;BME280;4386;51.236;6.742;2023-04-16T00:22:29;95970.72;;;11.39;65.18
8699;BME280;4386;51.236;6.742;2023-04-16T00:23:33;95979.47;;;11.40;65.19
8699;BME280;4386;51.236;6.742;2023-04-16T00:24:38;95969.91;;;11.39;65.18
8699;BME280;4386;51.236;6.742;2023-04-16T00:25:42;95974.41;;;11.38;65.13
8699;BME280;4386;51.236;6.742;2023-04-16T00:26:50;95978.09;;;11.37;64.97
8699;BME280;4386;51.236;6.742;2023-04-16T00:27:55;95978.91;;;11.38;65.01
8699;BME280;4386;51.236;6.742;2023-04-16T00:29:03;95978.34;;;11.36;65.00
8699;BME280;4386;51.236;6.742;2023-04-16T00:30:07;95978.09;;;11.37;64.95
8699;BME280;4386;51.236;6.742;2023-04-16T00:31:10;95976.75;;;11.35;65.04
8699;BME280;4386;51.236;6.742;2023-04-16T00:32:16;95974.09;;;11.35;64.95
8699;BME280;4386;51.236;6.742;2023-04-16T00:33:19;95976.16;;;11.33;64.84
8699;BME280;4386;51.236;6.742;2023-04-16T00:34:25;95976.75;;;11.35;64.85
8699;BME280;4386;51.236;6.742;2023-04-16T00:35:27;95968.81;;;11.35;64.75
8699;BME280;4386;51.236;6.742;2023-04-16T00:36:31;95981.47;;;11.33;64.84
8699;BME280;4386;51.236;6.742;2023-04-16T00:37:33;95974.31;;;11.33;64.59
8699;BME280;4386;51.236;6.742;2023-04-16T00:38:44;95964.53;;;11.34;64.60
8699;BME280;4386;51.236;6.742;2023-04-16T00:39:52;95967.19;;;11.34;64.72
8699;BME280;4386;51.236;6.742;2023-04-16T00:40:56;95970.88;;;11.33;64.68
8699;BME280;4386;51.236;6.742;2023-04-16T00:41:59;95966.88;;;11.30;64.54
8699;BME280;4386;51.236;6.742;2023-04-16T00:43:03;95966.06;;;11.30;64.70
8699;BME280;4386;51.236;6.742;2023-04-16T00:44:07;95961.56;;;11.30;64.51
8699;BME280;4386;51.236;6.742;2023-04-16T00:45:10;95962.84;;;11.28;64.52
8699;BME280;4386;51.236;6.742;2023-04-16T00:46:14;95957.56;;;11.28;64.50
8699;BME280;4386;51.236;6.742;2023-04-16T00:47:18;95963.66;;;11.28;64.65
8699;BME280;4386;51.236;6.742;2023-04-16T00:48:23;95967.56;;;11.26;64.62
8699;BME280;4386;51.236;6.742;2023-04-16T00:49:30;95962.03;;;11.27;64.64
8699;BME280;4386;51.236;6.742;2023-04-16T00:50:33;95968.97;;;11.28;64.52
8699;BME280;4386;51.236;6.742;2023-04-16T00:51:36;95966.31;;;11.28;64.39
8699;BME280;4386;51.236;6.742;2023-04-16T00:52:40;95971.34;;;11.30;64.60
8699;BME280;4386;51.236;6.742;2023-04-16T00:53:43;95963.97;;;11.32;64.45
8699;BME280;4386;51.236;6.742;2023-04-16T00:54:48;95961.56;;;11.30;64.48
8699;BME280;4386;51.236;6.742;2023-04-16T00:55:51;95958.09;;;11.30;64.58
8699;BME280;4386;51.236;6.742;2023-04-16T00:57:01;95959.72;;;11.31;64.52
8699;BME280;4386;51.236;6.742;2023-04-16T00:58:04;95965.03;;;11.31;64.40
8699;BME280;4386;51.236;6.742;2023-04-16T00:59:07;95957.06;;;11.31;64.50
8699;BME280;4386;51.236;6.742;2023-04-16T01:00:12;95972.97;;;11.31;64.58
